createdAt,value
2023-03-14T00:01:09.630Z,10.31
2023-03-14T00:03:36.041Z,10.33
2023-03-14T00:06:04.035Z,10.34
2023-03-14T00:08:30.488Z,10.37
2023-03-14T00:10:58.683Z,10.39
2023-03-14T00:13:25.688Z,10.38
2023-03-14T00:15:52.119Z,10.41
2023-03-14T00:18:20.829Z,10.40
2023-03-14T00:20:47.298Z,10.44
2023-03-14T00:23:13.712Z,10.53
2023-03-14T00:25:40.197Z,10.57
2023-03-14T00:28:06.607Z,10.61
2023-03-14T00:30:33.012Z,10.62
2023-03-14T00:32:59.448Z,10.62
2023-03-14T00:35:26.054Z,10.64
2023-03-14T00:37:52.450Z,10.68
2023-03-14T00:40:18.950Z,10.70
2023-03-14T00:42:45.390Z,10.66
2023-03-14T00:45:11.826Z,10.65
2023-03-14T00:47:38.647Z,10.63
2023-03-14T00:50:05.579Z,10.58
2023-03-14T00:52:32.050Z,10.55
2023-03-14T00:54:58.688Z,10.53
2023-03-14T00:57:25.179Z,10.53
2023-03-14T00:59:52.481Z,10.53
2023-03-14T01:02:18.972Z,10.54
2023-03-14T01:04:45.517Z,10.52
2023-03-14T01:07:11.972Z,10.49
2023-03-14T01:09:38.426Z,10.46
2023-03-14T01:12:05.186Z,10.39
2023-03-14T01:14:31.932Z,10.26
2023-03-14T01:17:01.707Z,10.17
2023-03-14T01:19:29.306Z,10.07
2023-03-14T01:21:55.795Z,9.96
2023-03-14T01:24:22.258Z,9.85
2023-03-14T01:26:48.699Z,9.72
2023-03-14T01:29:15.148Z,9.60
2023-03-14T01:31:41.598Z,9.51
2023-03-14T01:34:08.093Z,9.43
2023-03-14T01:36:34.581Z,9.35
2023-03-14T01:39:00.995Z,9.30
2023-03-14T01:41:28.132Z,9.22
2023-03-14T01:43:54.647Z,9.19
2023-03-14T01:46:27.139Z,9.16
2023-03-14T01:48:59.538Z,9.15
2023-03-14T01:51:41.776Z,9.13
2023-03-14T01:54:28.985Z,9.14
2023-03-14T01:57:05.834Z,9.14
2023-03-14T01:59:33.757Z,9.13
2023-03-14T02:02:00.387Z,9.13
2023-03-14T02:04:31.202Z,9.18
2023-03-14T02:07:05.121Z,9.17
2023-03-14T02:09:31.702Z,9.19
2023-03-14T02:11:59.291Z,9.19
2023-03-14T02:14:31.594Z,9.22
2023-03-14T02:16:58.975Z,9.23
2023-03-14T02:19:36.878Z,9.27
2023-03-14T02:22:14.823Z,9.28
2023-03-14T02:25:08.739Z,9.28
2023-03-14T02:27:35.950Z,9.26
2023-03-14T02:30:10.647Z,9.27
2023-03-14T02:32:40.356Z,9.26
2023-03-14T02:35:12.328Z,9.26
2023-03-14T02:37:51.845Z,9.26
2023-03-14T02:40:18.338Z,9.25
2023-03-14T02:42:44.802Z,9.26
2023-03-14T02:45:11.133Z,9.26
2023-03-14T02:47:43.156Z,9.26
2023-03-14T02:50:14.027Z,9.25
2023-03-14T02:52:40.477Z,9.21
2023-03-14T02:55:07.471Z,9.17
2023-03-14T02:57:33.864Z,9.17
2023-03-14T03:00:01.109Z,9.17
2023-03-14T03:02:30.669Z,9.17
2023-03-14T03:04:57.070Z,9.17
2023-03-14T03:07:23.504Z,9.16
2023-03-14T03:09:49.887Z,9.15
2023-03-14T03:12:16.311Z,9.16
2023-03-14T03:14:42.682Z,9.18
2023-03-14T03:17:09.210Z,9.17
2023-03-14T03:19:36.225Z,9.15
2023-03-14T03:22:02.658Z,9.15
2023-03-14T03:24:29.076Z,9.18
2023-03-14T03:26:55.853Z,9.19
2023-03-14T03:29:22.592Z,9.19
2023-03-14T03:31:48.973Z,9.21
2023-03-14T03:34:15.866Z,9.22
2023-03-14T03:36:43.243Z,9.24
2023-03-14T03:39:09.632Z,9.29
2023-03-14T03:41:36.085Z,9.31
2023-03-14T03:44:02.471Z,9.32
2023-03-14T03:46:28.868Z,9.32
2023-03-14T03:49:00.022Z,9.30
2023-03-14T03:51:26.802Z,9.32
2023-03-14T03:53:53.373Z,9.30
2023-03-14T03:56:19.797Z,9.32
2023-03-14T03:58:46.165Z,9.33
2023-03-14T04:01:12.677Z,9.33
2023-03-14T04:03:39.977Z,9.36
2023-03-14T04:06:12.947Z,9.40
2023-03-14T04:08:41.466Z,9.43
2023-03-14T04:11:08.236Z,9.45
2023-03-14T04:13:34.696Z,9.45
2023-03-14T04:16:01.203Z,9.47
2023-03-14T04:18:28.449Z,9.54
2023-03-14T04:20:56.750Z,9.56
2023-03-14T04:23:25.161Z,9.57
2023-03-14T04:25:53.042Z,9.59
2023-03-14T04:28:19.709Z,9.59
2023-03-14T04:30:46.168Z,9.62
2023-03-14T04:33:13.675Z,9.62
2023-03-14T04:35:40.174Z,9.63
2023-03-14T04:38:06.843Z,9.61
2023-03-14T04:40:33.313Z,9.62
2023-03-14T04:42:59.703Z,9.62
2023-03-14T04:45:26.069Z,9.66
2023-03-14T04:47:52.449Z,9.66
2023-03-14T04:50:19.116Z,9.68
2023-03-14T04:52:45.533Z,9.69
2023-03-14T04:55:11.994Z,9.68
2023-03-14T04:57:38.627Z,9.67
2023-03-14T05:00:08.856Z,9.66
2023-03-14T05:02:36.109Z,9.67
2023-03-14T05:05:02.764Z,9.67
2023-03-14T05:07:29.201Z,9.66
2023-03-14T05:09:55.627Z,9.64
2023-03-14T05:12:22.122Z,9.57
2023-03-14T05:14:48.527Z,9.49
2023-03-14T05:17:15.511Z,9.44
2023-03-14T05:19:42.575Z,9.35
2023-03-14T05:22:09.019Z,9.31
2023-03-14T05:24:35.514Z,9.26
2023-03-14T05:27:01.936Z,9.21
2023-03-14T05:29:28.428Z,9.15
2023-03-14T05:31:54.871Z,9.10
2023-03-14T05:34:21.882Z,9.07
2023-03-14T05:36:48.416Z,9.06
2023-03-14T05:39:14.793Z,9.03
2023-03-14T05:41:41.246Z,9.01
2023-03-14T05:44:07.631Z,9.01
2023-03-14T05:46:34.076Z,8.97
2023-03-14T05:49:01.073Z,8.95
2023-03-14T05:51:27.824Z,8.92
2023-03-14T05:53:54.208Z,8.90
2023-03-14T05:56:20.567Z,8.90
2023-03-14T05:58:47.019Z,8.89
2023-03-14T06:01:13.511Z,8.87
2023-03-14T06:03:40.088Z,8.87
2023-03-14T06:06:06.937Z,8.86
2023-03-14T06:08:33.392Z,8.85
2023-03-14T06:10:59.891Z,8.85
2023-03-14T06:13:26.339Z,8.86
2023-03-14T06:15:52.871Z,8.87
2023-03-14T06:18:19.360Z,8.86
2023-03-14T06:20:45.973Z,8.90
2023-03-14T06:23:12.581Z,8.90
2023-03-14T06:25:39.270Z,8.94
2023-03-14T06:28:05.689Z,8.95
2023-03-14T06:30:32.220Z,8.94
2023-03-14T06:32:58.741Z,8.92
2023-03-14T06:35:25.330Z,8.93
2023-03-14T06:37:52.208Z,8.95
2023-03-14T06:40:19.272Z,8.93
2023-03-14T06:42:46.340Z,8.95
2023-03-14T06:45:12.946Z,8.92
2023-03-14T06:47:39.506Z,8.88
2023-03-14T06:50:11.087Z,8.85
2023-03-14T06:52:38.183Z,8.71
2023-03-14T06:55:04.938Z,8.54
2023-03-14T06:57:31.406Z,8.43
2023-03-14T06:59:57.853Z,8.34
2023-03-14T07:02:35.965Z,8.25
2023-03-14T07:05:06.939Z,8.16
2023-03-14T07:07:33.672Z,8.14
2023-03-14T07:10:00.111Z,8.14
2023-03-14T07:12:26.541Z,8.10
2023-03-14T07:14:53.014Z,8.02
2023-03-14T07:17:19.485Z,7.95
2023-03-14T07:19:45.928Z,7.93
2023-03-14T07:22:12.359Z,7.91
2023-03-14T07:24:38.786Z,7.90
2023-03-14T07:27:05.253Z,7.93
2023-03-14T07:29:31.683Z,7.89
2023-03-14T07:31:58.426Z,7.90
2023-03-14T07:34:24.865Z,7.90
2023-03-14T07:36:51.358Z,7.84
2023-03-14T07:39:17.788Z,7.84
2023-03-14T07:41:44.190Z,7.78
2023-03-14T07:44:10.637Z,7.74
2023-03-14T07:46:37.069Z,7.69
2023-03-14T07:49:03.542Z,7.63
2023-03-14T07:51:29.984Z,7.61
2023-03-14T07:53:56.414Z,7.63
2023-03-14T07:56:22.950Z,7.60
2023-03-14T07:58:49.442Z,7.51
2023-03-14T08:01:16.004Z,7.52
2023-03-14T08:03:42.510Z,7.57
2023-03-14T08:06:09.023Z,7.41
2023-03-14T08:08:35.877Z,7.11
2023-03-14T08:11:07.191Z,6.93
2023-03-14T08:13:33.676Z,6.72
2023-03-14T08:16:00.163Z,6.68
2023-03-14T08:18:26.703Z,6.57
2023-03-14T08:20:53.123Z,6.48
2023-03-14T08:23:19.697Z,6.38
2023-03-14T08:25:46.327Z,6.33
2023-03-14T08:28:13.904Z,6.22
2023-03-14T08:30:40.354Z,6.23
2023-03-14T08:33:06.890Z,6.16
2023-03-14T08:35:33.408Z,6.12
2023-03-14T08:37:59.809Z,6.08
2023-03-14T08:40:26.208Z,6.15
2023-03-14T08:42:52.619Z,6.22
2023-03-14T08:45:19.229Z,6.30
2023-03-14T08:47:46.354Z,6.32
2023-03-14T08:50:16.248Z,6.31
2023-03-14T08:52:43.238Z,6.24
2023-03-14T08:55:10.163Z,6.32
2023-03-14T08:57:37.316Z,6.45
2023-03-14T09:00:14.313Z,6.53
2023-03-14T09:02:41.125Z,6.43
2023-03-14T09:05:08.541Z,6.45
2023-03-14T09:07:35.039Z,6.60
2023-03-14T09:10:01.485Z,6.68
2023-03-14T09:12:28.016Z,6.61
2023-03-14T09:14:54.677Z,6.60
2023-03-14T09:17:21.100Z,6.64
2023-03-14T09:19:47.481Z,6.64
2023-03-14T09:22:13.912Z,6.54
2023-03-14T09:24:41.688Z,6.54
2023-03-14T09:27:08.769Z,6.51
2023-03-14T09:29:35.579Z,6.45
2023-03-14T09:32:02.058Z,6.46
2023-03-14T09:34:28.506Z,6.51
2023-03-14T09:36:55.209Z,6.55
2023-03-14T09:39:21.578Z,6.62
2023-03-14T09:41:51.605Z,6.63
2023-03-14T09:44:26.415Z,6.66
2023-03-14T09:46:55.501Z,6.70
2023-03-14T09:49:29.830Z,6.76
2023-03-14T09:51:58.871Z,6.75
2023-03-14T09:54:53.026Z,6.85
2023-03-14T09:57:22.728Z,6.89
2023-03-14T09:59:51.219Z,6.99
2023-03-14T10:02:23.295Z,7.10
2023-03-14T10:04:52.618Z,7.00
2023-03-14T10:07:26.346Z,6.95
2023-03-14T10:09:52.829Z,7.02
2023-03-14T10:12:20.227Z,7.14
2023-03-14T10:14:54.630Z,7.19
2023-03-14T10:17:21.562Z,6.96
2023-03-14T10:19:58.129Z,6.93
2023-03-14T10:22:29.809Z,6.92
2023-03-14T10:25:00.234Z,6.77
2023-03-14T10:30:05.897Z,6.73
2023-03-14T10:32:38.795Z,6.87
2023-03-14T10:35:10.110Z,6.96
2023-03-14T10:37:36.819Z,7.11
2023-03-14T10:40:06.708Z,7.11
2023-03-14T10:42:39.771Z,7.09
2023-03-14T10:45:23.194Z,6.97
2023-03-14T10:47:51.378Z,6.95
2023-03-14T10:50:32.191Z,6.92
2023-03-14T10:53:06.299Z,6.84
2023-03-14T10:55:43.934Z,6.84
2023-03-14T10:58:32.629Z,6.74
2023-03-14T11:01:18.121Z,6.66
2023-03-14T11:03:53.336Z,6.57
2023-03-14T11:06:32.680Z,6.51
2023-03-14T11:09:21.995Z,6.57
2023-03-14T11:11:49.150Z,6.57
2023-03-14T11:14:42.304Z,6.75
2023-03-14T11:17:17.036Z,7.02
2023-03-14T11:19:52.315Z,7.24
2023-03-14T11:22:42.062Z,8.02
2023-03-14T11:25:22.251Z,8.47
2023-03-14T11:28:27.283Z,8.82
2023-03-14T11:30:56.381Z,8.62
2023-03-14T11:33:28.352Z,8.45
2023-03-14T11:36:10.137Z,8.82
2023-03-14T11:38:51.586Z,9.55
2023-03-14T11:41:26.288Z,9.56
2023-03-14T11:43:58.080Z,9.67
2023-03-14T11:46:28.042Z,9.97
2023-03-14T11:49:09.802Z,9.55
2023-03-14T11:51:46.960Z,9.82
2023-03-14T11:54:47.706Z,10.00
2023-03-14T11:57:18.382Z,9.89
2023-03-14T11:59:57.415Z,10.05
2023-03-14T12:02:32.694Z,9.89
2023-03-14T12:05:36.527Z,10.08
2023-03-14T12:08:12.050Z,10.25
2023-03-14T12:10:51.028Z,10.34
2023-03-14T12:13:18.732Z,10.21
2023-03-14T12:15:59.913Z,10.26
2023-03-14T12:18:35.712Z,10.08
2023-03-14T12:21:05.612Z,9.58
2023-03-14T12:23:44.430Z,9.50
2023-03-14T12:26:13.567Z,9.80
2023-03-14T12:28:44.580Z,9.71
2023-03-14T12:31:30.094Z,9.69
2023-03-14T12:34:05.120Z,9.59
2023-03-14T12:36:50.414Z,9.19
2023-03-14T12:39:38.410Z,9.13
2023-03-14T12:42:43.937Z,9.32
2023-03-14T12:45:25.271Z,9.75
2023-03-14T12:48:11.798Z,10.00
2023-03-14T12:50:45.921Z,10.03
2023-03-14T12:53:31.574Z,9.97
2023-03-14T12:56:22.414Z,10.04
2023-03-14T12:59:05.874Z,10.29
2023-03-14T13:01:34.792Z,9.74
2023-03-14T13:04:10.172Z,9.27
2023-03-14T13:07:00.571Z,9.14
2023-03-14T13:09:26.965Z,9.22
2023-03-14T13:12:01.307Z,9.17
2023-03-14T13:14:30.118Z,9.22
2023-03-14T13:17:10.447Z,9.50
2023-03-14T13:19:53.410Z,9.73
2023-03-14T13:22:32.864Z,9.71
2023-03-14T13:25:08.367Z,9.98
2023-03-14T13:27:36.168Z,9.87
2023-03-14T13:30:15.807Z,9.90
2023-03-14T13:32:45.320Z,9.97
2023-03-14T13:35:29.495Z,10.19
2023-03-14T13:38:10.749Z,9.87
2023-03-14T13:40:38.745Z,8.93
2023-03-14T13:43:14.299Z,8.68
2023-03-14T13:45:51.566Z,9.04
2023-03-14T13:48:19.337Z,9.31
2023-03-14T13:50:55.177Z,9.62
2023-03-14T13:53:22.089Z,9.67
2023-03-14T13:55:48.642Z,9.66
2023-03-14T13:58:37.810Z,9.61
2023-03-14T14:01:18.108Z,9.14
2023-03-14T14:03:52.075Z,8.91
2023-03-14T14:06:24.592Z,8.96
2023-03-14T14:08:51.417Z,8.65
2023-03-14T14:11:44.939Z,8.37
2023-03-14T14:14:28.250Z,8.34
2023-03-14T14:16:55.925Z,8.62
2023-03-14T14:19:26.152Z,8.74
2023-03-14T14:21:53.089Z,8.72
2023-03-14T14:24:23.585Z,8.55
2023-03-14T14:27:01.275Z,8.47
2023-03-14T14:29:33.528Z,8.34
2023-03-14T14:32:09.370Z,8.29
2023-03-14T14:34:52.616Z,8.27
2023-03-14T14:37:27.578Z,8.25
2023-03-14T14:39:58.490Z,8.10
2023-03-14T14:42:32.516Z,8.09
2023-03-14T14:44:59.884Z,7.86
2023-03-14T14:47:28.846Z,7.73
2023-03-14T14:49:59.586Z,7.64
2023-03-14T14:52:42.101Z,7.61
2023-03-14T14:55:21.999Z,7.59
2023-03-14T14:57:54.560Z,7.42
2023-03-14T15:00:24.080Z,7.37
2023-03-14T15:02:55.292Z,7.38
2023-03-14T15:05:28.056Z,7.26
2023-03-14T15:07:54.786Z,7.20
2023-03-14T15:10:24.000Z,7.17
2023-03-14T15:12:50.671Z,7.21
2023-03-14T15:15:18.519Z,7.37
2023-03-14T15:17:45.457Z,7.39
2023-03-14T15:20:14.831Z,7.39
2023-03-14T15:22:41.836Z,7.22
2023-03-14T15:25:12.970Z,7.22
2023-03-14T15:27:45.176Z,7.20
2023-03-14T15:30:16.564Z,7.13
2023-03-14T15:32:43.070Z,7.13
2023-03-14T15:35:10.475Z,7.13
2023-03-14T15:37:36.959Z,7.20
2023-03-14T15:40:12.715Z,7.17
2023-03-14T15:42:39.307Z,7.04
2023-03-14T15:45:06.414Z,6.97
2023-03-14T15:47:33.199Z,6.96
2023-03-14T15:49:59.838Z,6.94
2023-03-14T15:52:26.317Z,7.03
2023-03-14T15:54:52.780Z,7.05
2023-03-14T15:57:19.215Z,7.04
2023-03-14T15:59:45.758Z,7.07
2023-03-14T16:02:12.450Z,7.00
2023-03-14T16:04:38.859Z,6.97
2023-03-14T16:07:05.306Z,6.87
2023-03-14T16:09:32.170Z,6.82
2023-03-14T16:11:58.863Z,6.78
2023-03-14T16:14:25.362Z,6.73
2023-03-14T16:16:53.101Z,6.67
2023-03-14T16:19:19.527Z,6.62
2023-03-14T16:21:46.283Z,6.63
2023-03-14T16:24:12.686Z,6.64
2023-03-14T16:26:39.122Z,6.62
2023-03-14T16:29:05.655Z,6.58
2023-03-14T16:31:32.128Z,6.64
2023-03-14T16:34:03.516Z,6.65
2023-03-14T16:36:30.003Z,6.59
2023-03-14T16:38:56.510Z,6.57
2023-03-14T16:41:23.255Z,6.53
2023-03-14T16:43:52.273Z,6.51
2023-03-14T16:46:19.831Z,6.50
2023-03-14T16:48:46.470Z,6.50
2023-03-14T16:51:14.202Z,6.50
2023-03-14T16:53:40.857Z,6.47
2023-03-14T16:56:08.313Z,6.47
2023-03-14T16:58:35.447Z,6.54
2023-03-14T17:01:10.130Z,6.50
2023-03-14T17:03:39.115Z,6.40
2023-03-14T17:06:05.896Z,6.42
2023-03-14T17:08:32.377Z,6.48
2023-03-14T17:10:59.039Z,6.48
2023-03-14T17:13:25.911Z,6.42
2023-03-14T17:15:56.729Z,6.32
2023-03-14T17:18:24.538Z,6.29
2023-03-14T17:20:51.965Z,6.28
2023-03-14T17:23:18.791Z,6.23
2023-03-14T17:25:50.301Z,6.19
2023-03-14T17:28:17.614Z,6.11
2023-03-14T17:30:44.629Z,6.08
2023-03-14T17:33:11.631Z,6.03
2023-03-14T17:35:38.550Z,6.00
2023-03-14T17:38:05.342Z,5.96
2023-03-14T17:40:32.433Z,5.89
2023-03-14T17:42:58.826Z,5.88
2023-03-14T17:45:25.272Z,5.83
2023-03-14T17:47:51.807Z,5.71
2023-03-14T17:50:18.420Z,5.68
2023-03-14T17:52:44.872Z,5.66
2023-03-14T17:55:12.069Z,5.60
2023-03-14T17:57:40.238Z,5.55
2023-03-14T18:00:11.221Z,5.51
2023-03-14T18:02:37.762Z,5.45
2023-03-14T18:05:04.589Z,5.44
2023-03-14T18:07:34.887Z,5.44
2023-03-14T18:10:02.024Z,5.39
2023-03-14T18:12:28.895Z,5.37
2023-03-14T18:14:55.361Z,5.32
2023-03-14T18:17:21.824Z,5.26
2023-03-14T18:19:48.410Z,5.19
2023-03-14T18:22:15.964Z,5.13
2023-03-14T18:24:42.481Z,5.12
2023-03-14T18:27:09.103Z,5.10
2023-03-14T18:29:36.816Z,5.15
2023-03-14T18:32:03.283Z,5.12
2023-03-14T18:34:29.813Z,5.11
2023-03-14T18:36:56.204Z,5.11
2023-03-14T18:39:22.650Z,5.08
2023-03-14T18:41:49.032Z,5.07
2023-03-14T18:44:15.534Z,5.03
2023-03-14T18:46:42.499Z,4.99
2023-03-14T18:49:10.776Z,4.97
2023-03-14T18:51:37.183Z,4.93
2023-03-14T18:54:09.831Z,4.89
2023-03-14T18:56:39.153Z,4.87
2023-03-14T18:59:05.858Z,4.85
2023-03-14T19:01:34.133Z,4.80
2023-03-14T19:04:01.411Z,4.76
2023-03-14T19:06:28.691Z,4.77
2023-03-14T19:08:55.165Z,4.78
2023-03-14T19:11:21.667Z,4.80
2023-03-14T19:13:48.206Z,4.78
2023-03-14T19:16:15.773Z,4.78
2023-03-14T19:18:42.663Z,4.76
2023-03-14T19:21:12.371Z,4.76
2023-03-14T19:23:42.371Z,4.75
2023-03-14T19:26:09.885Z,4.72
2023-03-14T19:28:36.763Z,4.70
2023-03-14T19:31:04.843Z,4.61
2023-03-14T19:33:31.888Z,4.57
2023-03-14T19:35:58.739Z,4.54
2023-03-14T19:38:25.209Z,4.45
2023-03-14T19:40:57.736Z,4.33
2023-03-14T19:43:24.556Z,4.18
2023-03-14T19:45:51.108Z,4.06
2023-03-14T19:48:18.294Z,3.91
2023-03-14T19:50:44.819Z,3.80
2023-03-14T19:53:11.413Z,3.70
2023-03-14T19:55:38.162Z,3.67
2023-03-14T19:58:05.324Z,3.73
2023-03-14T20:00:32.017Z,3.75
2023-03-14T20:02:58.818Z,3.79
2023-03-14T20:05:25.330Z,3.80
2023-03-14T20:07:51.952Z,3.91
2023-03-14T20:10:22.687Z,3.98
2023-03-14T20:12:50.992Z,4.04
2023-03-14T20:15:19.645Z,4.12
2023-03-14T20:17:47.061Z,4.15
2023-03-14T20:20:13.815Z,4.20
2023-03-14T20:22:40.787Z,4.20
2023-03-14T20:25:12.937Z,4.25
2023-03-14T20:27:41.350Z,4.31
2023-03-14T20:30:12.697Z,4.35
2023-03-14T20:32:40.869Z,4.38
2023-03-14T20:35:09.568Z,4.34
2023-03-14T20:37:35.931Z,4.34
2023-03-14T20:40:02.587Z,4.32
2023-03-14T20:42:29.013Z,4.40
2023-03-14T20:44:55.499Z,4.40
2023-03-14T20:47:21.916Z,4.35
2023-03-14T20:49:48.406Z,4.35
2023-03-14T20:52:15.458Z,4.24
2023-03-14T20:54:41.834Z,4.24
2023-03-14T20:57:08.731Z,4.22
2023-03-14T20:59:35.210Z,4.16
2023-03-14T21:02:01.848Z,4.12
2023-03-14T21:04:28.525Z,4.03
2023-03-14T21:06:55.110Z,3.95
2023-03-14T21:09:27.140Z,3.93
2023-03-14T21:11:53.779Z,3.94
2023-03-14T21:14:22.367Z,3.95
2023-03-14T21:16:50.034Z,3.95
2023-03-14T21:19:16.787Z,3.93
2023-03-14T21:21:43.177Z,3.90
2023-03-14T21:24:09.559Z,3.86
2023-03-14T21:26:36.012Z,3.84
2023-03-14T21:29:03.074Z,3.84
2023-03-14T21:31:30.809Z,3.82
2023-03-14T21:33:57.668Z,3.83
2023-03-14T21:36:24.117Z,3.85
2023-03-14T21:38:50.668Z,3.85
2023-03-14T21:41:17.094Z,3.86
2023-03-14T21:43:45.681Z,3.83
2023-03-14T21:46:12.943Z,3.84
2023-03-14T21:48:39.371Z,3.87
2023-03-14T21:51:06.811Z,3.89
2023-03-14T21:53:34.803Z,3.95
2023-03-14T21:56:01.864Z,3.97
2023-03-14T21:58:28.411Z,3.97
2023-03-14T22:01:01.631Z,4.02
2023-03-14T22:03:28.767Z,4.04
2023-03-14T22:05:55.177Z,3.99
2023-03-14T22:08:22.595Z,4.03
2023-03-14T22:10:53.607Z,4.05
2023-03-14T22:13:22.727Z,4.05
2023-03-14T22:15:50.047Z,4.11
2023-03-14T22:18:18.000Z,4.14
2023-03-14T22:20:45.208Z,4.12
2023-03-14T22:23:12.684Z,4.18
2023-03-14T22:25:43.894Z,4.23
2023-03-14T22:28:10.831Z,4.27
2023-03-14T22:30:37.375Z,4.36
2023-03-14T22:33:04.196Z,4.41
2023-03-14T22:35:30.568Z,4.33
2023-03-14T22:37:57.272Z,4.11
2023-03-14T22:40:23.860Z,3.61
2023-03-14T22:42:53.655Z,3.34
2023-03-14T22:45:20.804Z,3.09
2023-03-14T22:47:47.348Z,2.80
2023-03-14T22:50:13.846Z,2.63
2023-03-14T22:52:42.739Z,2.40
2023-03-14T22:55:09.754Z,2.26
2023-03-14T22:57:37.187Z,2.26
2023-03-14T23:00:08.069Z,2.23
2023-03-14T23:02:34.441Z,2.16
2023-03-14T23:05:00.899Z,2.16
2023-03-14T23:07:27.291Z,2.19
2023-03-14T23:09:53.667Z,2.18
2023-03-14T23:12:21.587Z,2.24
2023-03-14T23:14:48.243Z,2.19
2023-03-14T23:17:14.690Z,2.12
2023-03-14T23:19:41.123Z,2.14
2023-03-14T23:22:09.646Z,2.16
2023-03-14T23:24:36.323Z,2.16
2023-03-14T23:27:03.327Z,2.19
2023-03-14T23:29:29.708Z,2.16
2023-03-14T23:31:56.125Z,2.12
2023-03-14T23:34:25.169Z,2.16
2023-03-14T23:36:51.702Z,2.10
2023-03-14T23:39:18.127Z,1.97
2023-03-14T23:41:44.799Z,1.92
2023-03-14T23:44:13.206Z,1.85
2023-03-14T23:46:40.011Z,1.78
2023-03-14T23:49:06.516Z,1.73
2023-03-14T23:51:32.906Z,1.71
2023-03-14T23:53:59.401Z,1.71
2023-03-14T23:56:25.819Z,1.73
2023-03-14T23:58:52.219Z,1.77
